sensor_id;sensor_type;location;lat;lon;timestamp;temperature;humidity
7427;DHT22;3755;59.316;18.092;2023-03-20T00:00:29;2.60;99.90
7427;DHT22;3755;59.316;18.092;2023-03-20T00:02:59;2.60;99.90
7427;DHT22;3755;59.316;18.092;2023-03-20T00:05:27;2.50;99.90
7427;DHT22;3755;59.316;18.092;2023-03-20T00:07:57;2.60;99.90
7427;DHT22;3755;59.316;18.092;2023-03-20T00:10:29;2.50;99.90
7427;DHT22;3755;59.316;18.092;2023-03-20T00:12:58;2.40;99.90
7427;DHT22;3755;59.316;18.092;2023-03-20T00:15:31;2.40;99.90
7427;DHT22;3755;59.316;18.092;2023-03-20T00:18:13;2.40;99.90
7427;DHT22;3755;59.316;18.092;2023-03-20T00:20:43;2.40;99.90
7427;DHT22;3755;59.316;18.092;2023-03-20T00:23:10;2.50;99.90
7427;DHT22;3755;59.316;18.092;2023-03-20T00:25:39;2.60;99.90
7427;DHT22;3755;59.316;18.092;2023-03-20T00:28:28;2.60;99.90
7427;DHT22;3755;59.316;18.092;2023-03-20T00:30:59;2.70;99.90
7427;DHT22;3755;59.316;18.092;2023-03-20T00:33:26;2.70;99.90
7427;DHT22;3755;59.316;18.092;2023-03-20T00:35:58;2.60;99.90
7427;DHT22;3755;59.316;18.092;2023-03-20T00:38:26;2.50;99.90
7427;DHT22;3755;59.316;18.092;2023-03-20T00:40:54;2.60;99.90
7427;DHT22;3755;59.316;18.092;2023-03-20T00:43:25;2.60;99.90
7427;DHT22;3755;59.316;18.092;2023-03-20T00:45:54;2.60;99.90
7427;DHT22;3755;59.316;18.092;2023-03-20T00:48:25;2.50;99.90
7427;DHT22;3755;59.316;18.092;2023-03-20T00:50:57;2.80;99.90
7427;DHT22;3755;59.316;18.092;2023-03-20T00:53:24;2.80;99.90
7427;DHT22;3755;59.316;18.092;2023-03-20T00:55:53;2.90;99.90
7427;DHT22;3755;59.316;18.092;2023-03-20T00:58:21;3.00;99.90
7427;DHT22;3755;59.316;18.092;2023-03-20T01:00:51;2.90;99.90
7427;DHT22;3755;59.316;18.092;2023-03-20T01:03:24;2.90;99.90
7427;DHT22;3755;59.316;18.092;2023-03-20T01:05:58;3.00;99.90
7427;DHT22;3755;59.316;18.092;2023-03-20T01:08:28;3.00;99.90
7427;DHT22;3755;59.316;18.092;2023-03-20T01:10:57;3.00;99.90
7427;DHT22;3755;59.316;18.092;2023-03-20T01:13:26;3.00;99.90
7427;DHT22;3755;59.316;18.092;2023-03-20T01:15:56;2.90;99.90
7427;DHT22;3755;59.316;18.092;2023-03-20T01:18:26;2.90;99.90
7427;DHT22;3755;59.316;18.092;2023-03-20T01:20:56;2.80;99.90
7427;DHT22;3755;59.316;18.092;2023-03-20T01:23:25;2.90;99.90
7427;DHT22;3755;59.316;18.092;2023-03-20T01:25:53;2.90;99.90
7427;DHT22;3755;59.316;18.092;2023-03-20T01:28:30;3.00;99.90
7427;DHT22;3755;59.316;18.092;2023-03-20T01:31:09;3.00;99.90
7427;DHT22;3755;59.316;18.092;2023-03-20T01:33:49;3.00;99.90
7427;DHT22;3755;59.316;18.092;2023-03-20T01:36:21;3.00;99.90
7427;DHT22;3755;59.316;18.092;2023-03-20T01:39:03;3.00;99.90
7427;DHT22;3755;59.316;18.092;2023-03-20T01:41:32;3.00;99.90
7427;DHT22;3755;59.316;18.092;2023-03-20T01:44:12;3.10;99.90
7427;DHT22;3755;59.316;18.092;2023-03-20T01:46:52;3.10;99.90
7427;DHT22;3755;59.316;18.092;2023-03-20T01:52:36;3.10;99.90
7427;DHT22;3755;59.316;18.092;2023-03-20T01:55:14;3.10;99.90
7427;DHT22;3755;59.316;18.092;2023-03-20T01:57:43;3.10;99.90
7427;DHT22;3755;59.316;18.092;2023-03-20T02:00:14;3.10;99.90
7427;DHT22;3755;59.316;18.092;2023-03-20T02:02:46;3.10;99.90
7427;DHT22;3755;59.316;18.092;2023-03-20T02:05:17;3.20;99.90
7427;DHT22;3755;59.316;18.092;2023-03-20T02:07:53;3.10;99.90
7427;DHT22;3755;59.316;18.092;2023-03-20T02:10:23;3.10;99.90
7427;DHT22;3755;59.316;18.092;2023-03-20T02:12:59;3.20;99.90
7427;DHT22;3755;59.316;18.092;2023-03-20T02:15:31;3.20;99.90
7427;DHT22;3755;59.316;18.092;2023-03-20T02:18:00;3.30;99.90
7427;DHT22;3755;59.316;18.092;2023-03-20T02:20:43;3.20;99.90
7427;DHT22;3755;59.316;18.092;2023-03-20T02:26:30;3.30;99.90
7427;DHT22;3755;59.316;18.092;2023-03-20T02:29:30;3.30;99.90
7427;DHT22;3755;59.316;18.092;2023-03-20T02:32:41;3.30;99.90
7427;DHT22;3755;59.316;18.092;2023-03-20T02:41:36;3.30;99.90
7427;DHT22;3755;59.316;18.092;2023-03-20T02:44:16;3.30;99.90
7427;DHT22;3755;59.316;18.092;2023-03-20T02:46:53;3.20;99.90
7427;DHT22;3755;59.316;18.092;2023-03-20T02:49:37;3.20;99.90
7427;DHT22;3755;59.316;18.092;2023-03-20T02:52:13;3.20;99.90
7427;DHT22;3755;59.316;18.092;2023-03-20T02:54:48;3.20;99.90
7427;DHT22;3755;59.316;18.092;2023-03-20T02:57:24;3.20;99.90
7427;DHT22;3755;59.316;18.092;2023-03-20T03:00:03;3.20;99.90
7427;DHT22;3755;59.316;18.092;2023-03-20T03:02:37;3.20;99.90
7427;DHT22;3755;59.316;18.092;2023-03-20T03:05:11;3.30;99.90
7427;DHT22;3755;59.316;18.092;2023-03-20T03:07:46;3.30;99.90
7427;DHT22;3755;59.316;18.092;2023-03-20T03:10:21;3.30;99.90
7427;DHT22;3755;59.316;18.092;2023-03-20T03:12:53;3.30;99.90
7427;DHT22;3755;59.316;18.092;2023-03-20T03:15:29;3.30;99.90
7427;DHT22;3755;59.316;18.092;2023-03-20T03:18:03;3.30;99.90
7427;DHT22;3755;59.316;18.092;2023-03-20T03:20:35;3.30;99.90
7427;DHT22;3755;59.316;18.092;2023-03-20T03:23:04;3.30;99.90
7427;DHT22;3755;59.316;18.092;2023-03-20T03:25:37;3.20;99.90
7427;DHT22;3755;59.316;18.092;2023-03-20T03:28:22;3.30;99.90
7427;DHT22;3755;59.316;18.092;2023-03-20T03:30:53;3.20;99.90
7427;DHT22;3755;59.316;18.092;2023-03-20T03:33:23;3.30;99.90
7427;DHT22;3755;59.316;18.092;2023-03-20T03:35:54;3.30;99.90
7427;DHT22;3755;59.316;18.092;2023-03-20T03:38:29;3.30;99.90
7427;DHT22;3755;59.316;18.092;2023-03-20T03:41:10;3.30;99.90
7427;DHT22;3755;59.316;18.092;2023-03-20T03:43:46;3.30;99.90
7427;DHT22;3755;59.316;18.092;2023-03-20T03:46:21;3.40;99.90
7427;DHT22;3755;59.316;18.092;2023-03-20T03:48:54;3.40;99.90
7427;DHT22;3755;59.316;18.092;2023-03-20T03:51:24;3.40;99.90
7427;DHT22;3755;59.316;18.092;2023-03-20T03:53:54;3.40;99.90
7427;DHT22;3755;59.316;18.092;2023-03-20T03:56:25;3.50;99.90
7427;DHT22;3755;59.316;18.092;2023-03-20T03:58:58;3.50;99.90
7427;DHT22;3755;59.316;18.092;2023-03-20T04:01:30;3.50;99.90
7427;DHT22;3755;59.316;18.092;2023-03-20T04:04:02;3.50;99.90
7427;DHT22;3755;59.316;18.092;2023-03-20T04:06:31;3.50;99.90
7427;DHT22;3755;59.316;18.092;2023-03-20T04:08:58;3.50;99.90
7427;DHT22;3755;59.316;18.092;2023-03-20T04:11:26;3.50;99.90
7427;DHT22;3755;59.316;18.092;2023-03-20T04:13:56;3.50;99.90
7427;DHT22;3755;59.316;18.092;2023-03-20T04:16:24;3.60;99.90
7427;DHT22;3755;59.316;18.092;2023-03-20T04:18:52;3.60;99.90
7427;DHT22;3755;59.316;18.092;2023-03-20T04:21:21;3.50;99.90
7427;DHT22;3755;59.316;18.092;2023-03-20T04:23:52;3.50;99.90
7427;DHT22;3755;59.316;18.092;2023-03-20T04:26:20;3.50;99.90
7427;DHT22;3755;59.316;18.092;2023-03-20T04:28:50;3.50;99.90
7427;DHT22;3755;59.316;18.092;2023-03-20T04:31:19;3.60;99.90
7427;DHT22;3755;59.316;18.092;2023-03-20T04:33:47;3.70;99.90
7427;DHT22;3755;59.316;18.092;2023-03-20T04:36:15;3.70;99.90
7427;DHT22;3755;59.316;18.092;2023-03-20T04:38:43;3.70;99.90
7427;DHT22;3755;59.316;18.092;2023-03-20T04:41:11;3.80;99.90
7427;DHT22;3755;59.316;18.092;2023-03-20T04:43:38;3.80;99.90
7427;DHT22;3755;59.316;18.092;2023-03-20T04:46:09;3.80;99.90
7427;DHT22;3755;59.316;18.092;2023-03-20T04:48:42;3.80;99.90
7427;DHT22;3755;59.316;18.092;2023-03-20T04:51:12;3.80;99.90
7427;DHT22;3755;59.316;18.092;2023-03-20T04:53:40;3.90;99.90
7427;DHT22;3755;59.316;18.092;2023-03-20T04:56:12;3.90;99.90
7427;DHT22;3755;59.316;18.092;2023-03-20T04:58:40;3.90;99.90
7427;DHT22;3755;59.316;18.092;2023-03-20T05:01:22;3.90;99.90
7427;DHT22;3755;59.316;18.092;2023-03-20T05:03:52;4.00;99.90
7427;DHT22;3755;59.316;18.092;2023-03-20T05:06:33;4.00;99.90
7427;DHT22;3755;59.316;18.092;2023-03-20T05:09:04;4.00;99.90
7427;DHT22;3755;59.316;18.092;2023-03-20T05:11:36;4.00;99.90
7427;DHT22;3755;59.316;18.092;2023-03-20T05:14:23;4.00;99.90
7427;DHT22;3755;59.316;18.092;2023-03-20T05:17:03;4.10;99.90
7427;DHT22;3755;59.316;18.092;2023-03-20T05:19:46;4.10;99.90
7427;DHT22;3755;59.316;18.092;2023-03-20T05:22:23;4.10;99.90
7427;DHT22;3755;59.316;18.092;2023-03-20T05:24:56;4.20;99.90
7427;DHT22;3755;59.316;18.092;2023-03-20T05:27:25;4.20;99.90
7427;DHT22;3755;59.316;18.092;2023-03-20T05:30:07;4.20;99.90
7427;DHT22;3755;59.316;18.092;2023-03-20T05:32:36;4.20;99.90
7427;DHT22;3755;59.316;18.092;2023-03-20T05:35:19;4.20;99.90
7427;DHT22;3755;59.316;18.092;2023-03-20T05:37:53;4.20;99.90
7427;DHT22;3755;59.316;18.092;2023-03-20T05:40:21;4.10;99.90
7427;DHT22;3755;59.316;18.092;2023-03-20T05:43:20;4.30;99.90
7427;DHT22;3755;59.316;18.092;2023-03-20T05:54:18;4.50;99.90
7427;DHT22;3755;59.316;18.092;2023-03-20T05:56:54;4.40;99.90
7427;DHT22;3755;59.316;18.092;2023-03-20T05:59:28;4.30;99.90
7427;DHT22;3755;59.316;18.092;2023-03-20T06:02:04;4.40;99.90
7427;DHT22;3755;59.316;18.092;2023-03-20T06:05:05;4.60;99.90
7427;DHT22;3755;59.316;18.092;2023-03-20T06:07:49;4.30;99.90
7427;DHT22;3755;59.316;18.092;2023-03-20T07:50:36;6.10;99.90
7427;DHT22;3755;59.316;18.092;2023-03-20T07:53:25;6.10;99.90
7427;DHT22;3755;59.316;18.092;2023-03-20T07:56:22;6.30;99.90
7427;DHT22;3755;59.316;18.092;2023-03-20T07:59:04;6.50;99.90
7427;DHT22;3755;59.316;18.092;2023-03-20T08:01:50;6.50;99.90
7427;DHT22;3755;59.316;18.092;2023-03-20T08:04:31;6.60;99.90
7427;DHT22;3755;59.316;18.092;2023-03-20T08:07:20;6.60;99.90
7427;DHT22;3755;59.316;18.092;2023-03-20T08:10:05;6.60;99.90
7427;DHT22;3755;59.316;18.092;2023-03-20T08:12:36;6.70;99.90
7427;DHT22;3755;59.316;18.092;2023-03-20T08:15:04;6.80;99.90
7427;DHT22;3755;59.316;18.092;2023-03-20T08:17:35;6.90;99.90
7427;DHT22;3755;59.316;18.092;2023-03-20T08:20:07;7.10;99.90
7427;DHT22;3755;59.316;18.092;2023-03-20T08:22:50;7.10;99.90
7427;DHT22;3755;59.316;18.092;2023-03-20T08:25:18;7.20;99.90
7427;DHT22;3755;59.316;18.092;2023-03-20T08:28:00;7.30;99.90
7427;DHT22;3755;59.316;18.092;2023-03-20T08:30:29;7.30;99.90
7427;DHT22;3755;59.316;18.092;2023-03-20T08:32:58;7.20;99.90
7427;DHT22;3755;59.316;18.092;2023-03-20T08:35:39;7.10;99.90
7427;DHT22;3755;59.316;18.092;2023-03-20T08:38:13;7.10;99.90
7427;DHT22;3755;59.316;18.092;2023-03-20T08:40:54;7.00;99.90
7427;DHT22;3755;59.316;18.092;2023-03-20T08:43:38;7.00;99.90
7427;DHT22;3755;59.316;18.092;2023-03-20T08:46:20;7.10;99.90
7427;DHT22;3755;59.316;18.092;2023-03-20T08:48:49;7.10;99.90
7427;DHT22;3755;59.316;18.092;2023-03-20T08:51:31;7.10;99.90
7427;DHT22;3755;59.316;18.092;2023-03-20T08:54:05;7.20;99.90
7427;DHT22;3755;59.316;18.092;2023-03-20T08:57:33;7.30;99.90
7427;DHT22;3755;59.316;18.092;2023-03-20T09:32:46;7.20;99.90
7427;DHT22;3755;59.316;18.092;2023-03-20T09:35:18;7.80;99.90
7427;DHT22;3755;59.316;18.092;2023-03-20T09:38:04;7.20;99.90
7427;DHT22;3755;59.316;18.092;2023-03-20T09:40:50;7.00;99.90
7427;DHT22;3755;59.316;18.092;2023-03-20T09:46:00;6.70;99.90
7427;DHT22;3755;59.316;18.092;2023-03-20T09:48:38;6.70;99.90
7427;DHT22;3755;59.316;18.092;2023-03-20T09:51:17;6.90;99.90
7427;DHT22;3755;59.316;18.092;2023-03-20T09:53:50;6.80;99.90
7427;DHT22;3755;59.316;18.092;2023-03-20T09:56:22;6.90;99.90
7427;DHT22;3755;59.316;18.092;2023-03-20T09:58:52;6.90;99.90
7427;DHT22;3755;59.316;18.092;2023-03-20T10:01:23;6.90;99.90
7427;DHT22;3755;59.316;18.092;2023-03-20T10:03:57;6.80;99.90
7427;DHT22;3755;59.316;18.092;2023-03-20T10:06:25;6.90;99.90
7427;DHT22;3755;59.316;18.092;2023-03-20T10:08:53;7.00;99.90
7427;DHT22;3755;59.316;18.092;2023-03-20T10:11:33;7.00;99.90
7427;DHT22;3755;59.316;18.092;2023-03-20T10:14:20;7.00;99.90
7427;DHT22;3755;59.316;18.092;2023-03-20T10:17:07;7.00;99.90
7427;DHT22;3755;59.316;18.092;2023-03-20T10:19:43;6.70;99.90
7427;DHT22;3755;59.316;18.092;2023-03-20T10:22:19;7.00;99.90
7427;DHT22;3755;59.316;18.092;2023-03-20T10:24:55;7.20;99.90
7427;DHT22;3755;59.316;18.092;2023-03-20T10:27:30;7.10;99.90
7427;DHT22;3755;59.316;18.092;2023-03-20T10:30:12;7.30;99.90
7427;DHT22;3755;59.316;18.092;2023-03-20T10:32:51;7.30;99.90
7427;DHT22;3755;59.316;18.092;2023-03-20T10:35:30;7.10;99.90
7427;DHT22;3755;59.316;18.092;2023-03-20T10:38:08;7.30;99.90
7427;DHT22;3755;59.316;18.092;2023-03-20T10:40:40;7.50;99.90
7427;DHT22;3755;59.316;18.092;2023-03-20T10:43:15;7.40;99.90
7427;DHT22;3755;59.316;18.092;2023-03-20T10:45:46;7.50;99.90
7427;DHT22;3755;59.316;18.092;2023-03-20T10:48:20;7.60;99.90
7427;DHT22;3755;59.316;18.092;2023-03-20T10:50:53;7.60;99.90
7427;DHT22;3755;59.316;18.092;2023-03-20T10:53:28;7.60;99.90
7427;DHT22;3755;59.316;18.092;2023-03-20T10:55:59;7.50;99.90
7427;DHT22;3755;59.316;18.092;2023-03-20T10:58:31;7.60;99.90
7427;DHT22;3755;59.316;18.092;2023-03-20T11:01:00;7.60;99.90
7427;DHT22;3755;59.316;18.092;2023-03-20T11:03:29;7.90;99.90
7427;DHT22;3755;59.316;18.092;2023-03-20T11:06:02;8.00;99.90
7427;DHT22;3755;59.316;18.092;2023-03-20T11:08:34;8.10;99.90
7427;DHT22;3755;59.316;18.092;2023-03-20T11:11:04;8.20;99.90
7427;DHT22;3755;59.316;18.092;2023-03-20T11:13:34;8.40;99.90
7427;DHT22;3755;59.316;18.092;2023-03-20T11:16:18;8.40;99.90
7427;DHT22;3755;59.316;18.092;2023-03-20T11:18:49;8.40;99.90
7427;DHT22;3755;59.316;18.092;2023-03-20T11:21:36;8.30;99.90
7427;DHT22;3755;59.316;18.092;2023-03-20T11:24:22;8.60;99.90
7427;DHT22;3755;59.316;18.092;2023-03-20T11:27:06;8.60;99.90
7427;DHT22;3755;59.316;18.092;2023-03-20T11:29:35;8.50;99.90
7427;DHT22;3755;59.316;18.092;2023-03-20T11:32:06;8.50;99.90
7427;DHT22;3755;59.316;18.092;2023-03-20T11:34:49;8.50;99.90
7427;DHT22;3755;59.316;18.092;2023-03-20T11:37:47;8.40;99.90
7427;DHT22;3755;59.316;18.092;2023-03-20T11:40:40;8.40;99.90
7427;DHT22;3755;59.316;18.092;2023-03-20T11:43:13;8.20;99.90
7427;DHT22;3755;59.316;18.092;2023-03-20T11:45:44;8.20;99.90
7427;DHT22;3755;59.316;18.092;2023-03-20T11:48:16;7.80;99.90
7427;DHT22;3755;59.316;18.092;2023-03-20T11:50:47;8.30;99.90
7427;DHT22;3755;59.316;18.092;2023-03-20T11:53:27;8.50;99.90
7427;DHT22;3755;59.316;18.092;2023-03-20T11:56:11;8.60;99.90
7427;DHT22;3755;59.316;18.092;2023-03-20T11:58:54;8.40;99.90
7427;DHT22;3755;59.316;18.092;2023-03-20T12:01:22;8.30;99.90
7427;DHT22;3755;59.316;18.092;2023-03-20T12:03:51;8.30;99.90
7427;DHT22;3755;59.316;18.092;2023-03-20T12:06:48;8.00;99.90
7427;DHT22;3755;59.316;18.092;2023-03-20T12:09:30;8.20;99.90
7427;DHT22;3755;59.316;18.092;2023-03-20T12:12:02;8.20;99.90
7427;DHT22;3755;59.316;18.092;2023-03-20T12:14:37;8.20;99.90
7427;DHT22;3755;59.316;18.092;2023-03-20T12:17:35;8.20;99.90
7427;DHT22;3755;59.316;18.092;2023-03-20T12:20:15;8.20;99.90
7427;DHT22;3755;59.316;18.092;2023-03-20T12:22:49;8.20;99.90
7427;DHT22;3755;59.316;18.092;2023-03-20T12:25:22;8.10;99.90
7427;DHT22;3755;59.316;18.092;2023-03-20T12:27:56;8.10;99.90
7427;DHT22;3755;59.316;18.092;2023-03-20T12:30:31;8.10;99.90
7427;DHT22;3755;59.316;18.092;2023-03-20T12:33:03;8.10;99.90
7427;DHT22;3755;59.316;18.092;2023-03-20T12:35:42;8.30;99.90
7427;DHT22;3755;59.316;18.092;2023-03-20T12:41:23;8.50;99.90
7427;DHT22;3755;59.316;18.092;2023-03-20T12:44:13;8.60;99.90
7427;DHT22;3755;59.316;18.092;2023-03-20T12:46:47;8.80;99.90
7427;DHT22;3755;59.316;18.092;2023-03-20T12:49:28;8.60;99.90
7427;DHT22;3755;59.316;18.092;2023-03-20T12:52:08;8.70;99.90
7427;DHT22;3755;59.316;18.092;2023-03-20T12:55:02;8.80;99.90
7427;DHT22;3755;59.316;18.092;2023-03-20T12:57:40;9.00;99.90
7427;DHT22;3755;59.316;18.092;2023-03-20T13:00:19;8.80;99.90
7427;DHT22;3755;59.316;18.092;2023-03-20T13:02:56;8.70;99.90
7427;DHT22;3755;59.316;18.092;2023-03-20T13:05:36;8.60;99.90
7427;DHT22;3755;59.316;18.092;2023-03-20T13:08:42;8.50;99.90
7427;DHT22;3755;59.316;18.092;2023-03-20T13:11:29;8.50;99.90
7427;DHT22;3755;59.316;18.092;2023-03-20T13:14:06;8.40;99.90
7427;DHT22;3755;59.316;18.092;2023-03-20T13:16:55;8.30;99.90
7427;DHT22;3755;59.316;18.092;2023-03-20T13:19:45;8.30;99.90
7427;DHT22;3755;59.316;18.092;2023-03-20T13:22:19;8.20;99.90
7427;DHT22;3755;59.316;18.092;2023-03-20T13:24:53;8.20;99.90
7427;DHT22;3755;59.316;18.092;2023-03-20T13:27:28;8.10;99.90
7427;DHT22;3755;59.316;18.092;2023-03-20T13:30:03;8.00;99.90
7427;DHT22;3755;59.316;18.092;2023-03-20T13:32:44;7.90;99.90
7427;DHT22;3755;59.316;18.092;2023-03-20T13:35:24;7.90;99.90
7427;DHT22;3755;59.316;18.092;2023-03-20T13:37:56;7.90;99.90
7427;DHT22;3755;59.316;18.092;2023-03-20T13:40:27;8.00;99.90
7427;DHT22;3755;59.316;18.092;2023-03-20T13:42:59;8.10;99.90
7427;DHT22;3755;59.316;18.092;2023-03-20T13:45:35;8.20;99.90
7427;DHT22;3755;59.316;18.092;2023-03-20T13:48:11;8.30;99.90
7427;DHT22;3755;59.316;18.092;2023-03-20T13:50:44;8.30;99.90
7427;DHT22;3755;59.316;18.092;2023-03-20T13:53:24;8.20;99.90
7427;DHT22;3755;59.316;18.092;2023-03-20T13:55:59;8.20;99.90
7427;DHT22;3755;59.316;18.092;2023-03-20T13:58:51;8.10;99.90
7427;DHT22;3755;59.316;18.092;2023-03-20T14:01:25;8.10;99.90
7427;DHT22;3755;59.316;18.092;2023-03-20T14:03:55;7.90;99.90
7427;DHT22;3755;59.316;18.092;2023-03-20T14:06:43;7.90;99.90
7427;DHT22;3755;59.316;18.092;2023-03-20T14:09:25;7.80;99.90
7427;DHT22;3755;59.316;18.092;2023-03-20T14:11:59;7.80;99.90
7427;DHT22;3755;59.316;18.092;2023-03-20T14:14:28;7.60;99.90
7427;DHT22;3755;59.316;18.092;2023-03-20T14:17:10;7.50;99.90
7427;DHT22;3755;59.316;18.092;2023-03-20T14:19:40;7.30;99.90
7427;DHT22;3755;59.316;18.092;2023-03-20T14:22:14;6.90;99.90
7427;DHT22;3755;59.316;18.092;2023-03-20T14:24:50;6.80;99.90
7427;DHT22;3755;59.316;18.092;2023-03-20T14:27:21;6.70;99.90
7427;DHT22;3755;59.316;18.092;2023-03-20T14:29:50;6.60;99.90
7427;DHT22;3755;59.316;18.092;2023-03-20T14:32:35;6.60;99.90
7427;DHT22;3755;59.316;18.092;2023-03-20T14:35:24;6.30;99.90
7427;DHT22;3755;59.316;18.092;2023-03-20T14:38:08;6.10;99.90
7427;DHT22;3755;59.316;18.092;2023-03-20T14:40:44;5.80;99.90
7427;DHT22;3755;59.316;18.092;2023-03-20T14:43:18;5.70;99.90
7427;DHT22;3755;59.316;18.092;2023-03-20T14:45:53;5.60;99.90
7427;DHT22;3755;59.316;18.092;2023-03-20T14:48:31;5.70;99.90
7427;DHT22;3755;59.316;18.092;2023-03-20T14:51:15;5.60;99.90
7427;DHT22;3755;59.316;18.092;2023-03-20T14:53:49;5.50;99.90
7427;DHT22;3755;59.316;18.092;2023-03-20T14:56:27;5.50;99.90
7427;DHT22;3755;59.316;18.092;2023-03-20T14:59:00;5.50;99.90
7427;DHT22;3755;59.316;18.092;2023-03-20T15:01:56;5.60;99.90
7427;DHT22;3755;59.316;18.092;2023-03-20T15:04:33;5.50;99.90
7427;DHT22;3755;59.316;18.092;2023-03-20T15:07:03;5.50;99.90
7427;DHT22;3755;59.316;18.092;2023-03-20T15:09:35;5.50;99.90
7427;DHT22;3755;59.316;18.092;2023-03-20T15:12:05;5.40;99.90
7427;DHT22;3755;59.316;18.092;2023-03-20T15:14:37;5.30;99.90
7427;DHT22;3755;59.316;18.092;2023-03-20T15:17:16;5.20;99.90
7427;DHT22;3755;59.316;18.092;2023-03-20T15:19:47;5.20;99.90
7427;DHT22;3755;59.316;18.092;2023-03-20T15:22:16;5.20;99.90
7427;DHT22;3755;59.316;18.092;2023-03-20T15:24:51;5.10;99.90
7427;DHT22;3755;59.316;18.092;2023-03-20T15:27:19;5.00;99.90
7427;DHT22;3755;59.316;18.092;2023-03-20T15:29:55;5.00;99.90
7427;DHT22;3755;59.316;18.092;2023-03-20T15:32:23;5.00;99.90
7427;DHT22;3755;59.316;18.092;2023-03-20T15:34:53;5.00;99.90
7427;DHT22;3755;59.316;18.092;2023-03-20T15:37:22;5.00;99.90
7427;DHT22;3755;59.316;18.092;2023-03-20T15:39:52;4.90;99.90
7427;DHT22;3755;59.316;18.092;2023-03-20T15:42:23;4.80;99.90
7427;DHT22;3755;59.316;18.092;2023-03-20T15:44:53;4.70;99.90
7427;DHT22;3755;59.316;18.092;2023-03-20T15:47:22;4.60;99.90
7427;DHT22;3755;59.316;18.092;2023-03-20T15:49:54;4.60;99.90
7427;DHT22;3755;59.316;18.092;2023-03-20T15:52:28;4.50;99.90
7427;DHT22;3755;59.316;18.092;2023-03-20T15:54:58;4.50;99.90
7427;DHT22;3755;59.316;18.092;2023-03-20T15:57:30;4.50;99.90
7427;DHT22;3755;59.316;18.092;2023-03-20T16:00:03;4.50;99.90
7427;DHT22;3755;59.316;18.092;2023-03-20T16:02:31;4.30;99.90
7427;DHT22;3755;59.316;18.092;2023-03-20T16:05:02;4.30;99.90
7427;DHT22;3755;59.316;18.092;2023-03-20T16:07:31;4.30;99.90
7427;DHT22;3755;59.316;18.092;2023-03-20T16:10:00;4.30;99.90
7427;DHT22;3755;59.316;18.092;2023-03-20T16:12:28;4.20;99.90
7427;DHT22;3755;59.316;18.092;2023-03-20T16:15:16;4.10;99.90
7427;DHT22;3755;59.316;18.092;2023-03-20T16:17:52;4.00;99.90
7427;DHT22;3755;59.316;18.092;2023-03-20T16:20:29;4.00;99.90
7427;DHT22;3755;59.316;18.092;2023-03-20T16:23:29;3.80;99.90
7427;DHT22;3755;59.316;18.092;2023-03-20T16:26:02;3.80;99.90
7427;DHT22;3755;59.316;18.092;2023-03-20T16:28:30;3.80;99.90
7427;DHT22;3755;59.316;18.092;2023-03-20T16:31:07;3.70;99.90
7427;DHT22;3755;59.316;18.092;2023-03-20T16:33:38;3.90;99.90
7427;DHT22;3755;59.316;18.092;2023-03-20T16:36:15;3.60;99.90
7427;DHT22;3755;59.316;18.092;2023-03-20T16:38:54;3.50;99.90
7427;DHT22;3755;59.316;18.092;2023-03-20T16:41:29;3.50;99.90
7427;DHT22;3755;59.316;18.092;2023-03-20T16:44:02;3.40;99.90
7427;DHT22;3755;59.316;18.092;2023-03-20T16:46:32;3.40;99.90
7427;DHT22;3755;59.316;18.092;2023-03-20T16:49:47;3.30;99.90
7427;DHT22;3755;59.316;18.092;2023-03-20T16:52:27;3.20;99.90
7427;DHT22;3755;59.316;18.092;2023-03-20T16:54:56;3.20;99.90
7427;DHT22;3755;59.316;18.092;2023-03-20T16:57:25;3.20;99.90
7427;DHT22;3755;59.316;18.092;2023-03-20T16:59:55;3.20;99.90
7427;DHT22;3755;59.316;18.092;2023-03-20T17:02:29;3.20;99.90
7427;DHT22;3755;59.316;18.092;2023-03-20T17:05:01;3.10;99.90
7427;DHT22;3755;59.316;18.092;2023-03-20T17:07:31;3.10;99.90
7427;DHT22;3755;59.316;18.092;2023-03-20T17:10:10;3.00;99.90
7427;DHT22;3755;59.316;18.092;2023-03-20T17:12:39;3.00;99.90
7427;DHT22;3755;59.316;18.092;2023-03-20T17:15:14;3.00;99.90
7427;DHT22;3755;59.316;18.092;2023-03-20T17:17:43;2.90;99.90
7427;DHT22;3755;59.316;18.092;2023-03-20T17:20:18;3.00;99.90
7427;DHT22;3755;59.316;18.092;2023-03-20T17:22:48;3.00;99.90
7427;DHT22;3755;59.316;18.092;2023-03-20T17:25:18;3.00;99.90
7427;DHT22;3755;59.316;18.092;2023-03-20T17:27:45;2.90;99.90
7427;DHT22;3755;59.316;18.092;2023-03-20T17:30:16;2.80;99.90
7427;DHT22;3755;59.316;18.092;2023-03-20T17:32:44;2.80;99.90
7427;DHT22;3755;59.316;18.092;2023-03-20T17:35:14;2.80;99.90
7427;DHT22;3755;59.316;18.092;2023-03-20T17:37:44;2.80;99.90
7427;DHT22;3755;59.316;18.092;2023-03-20T17:40:18;2.70;99.90
7427;DHT22;3755;59.316;18.092;2023-03-20T17:42:46;2.70;99.90
7427;DHT22;3755;59.316;18.092;2023-03-20T17:45:15;2.80;99.90
7427;DHT22;3755;59.316;18.092;2023-03-20T17:47:43;2.80;99.90
7427;DHT22;3755;59.316;18.092;2023-03-20T17:50:18;2.90;99.90
7427;DHT22;3755;59.316;18.092;2023-03-20T17:52:46;2.90;99.90
7427;DHT22;3755;59.316;18.092;2023-03-20T17:55:15;2.90;99.90
7427;DHT22;3755;59.316;18.092;2023-03-20T17:57:42;2.80;99.90
7427;DHT22;3755;59.316;18.092;2023-03-20T18:00:16;2.70;99.90
7427;DHT22;3755;59.316;18.092;2023-03-20T18:02:44;2.70;99.90
7427;DHT22;3755;59.316;18.092;2023-03-20T18:05:12;2.60;99.90
7427;DHT22;3755;59.316;18.092;2023-03-20T18:07:39;2.70;99.90
7427;DHT22;3755;59.316;18.092;2023-03-20T18:10:18;2.70;99.90
7427;DHT22;3755;59.316;18.092;2023-03-20T18:12:47;2.60;99.90
7427;DHT22;3755;59.316;18.092;2023-03-20T18:15:16;2.60;99.90
7427;DHT22;3755;59.316;18.092;2023-03-20T18:17:45;2.50;99.90
7427;DHT22;3755;59.316;18.092;2023-03-20T18:20:25;2.60;99.90
7427;DHT22;3755;59.316;18.092;2023-03-20T18:22:53;2.60;99.90
7427;DHT22;3755;59.316;18.092;2023-03-20T18:25:25;2.60;99.90
7427;DHT22;3755;59.316;18.092;2023-03-20T18:28:09;2.70;99.90
7427;DHT22;3755;59.316;18.092;2023-03-20T18:30:44;2.70;99.90
7427;DHT22;3755;59.316;18.092;2023-03-20T18:33:15;2.70;99.90
7427;DHT22;3755;59.316;18.092;2023-03-20T18:35:50;2.70;99.90
7427;DHT22;3755;59.316;18.092;2023-03-20T18:38:19;2.70;99.90
7427;DHT22;3755;59.316;18.092;2023-03-20T18:40:51;2.60;99.90
7427;DHT22;3755;59.316;18.092;2023-03-20T18:43:18;2.60;99.90
7427;DHT22;3755;59.316;18.092;2023-03-20T18:45:48;2.50;99.90
7427;DHT22;3755;59.316;18.092;2023-03-20T18:48:16;2.60;99.90
7427;DHT22;3755;59.316;18.092;2023-03-20T18:50:43;2.40;99.90
7427;DHT22;3755;59.316;18.092;2023-03-20T18:53:16;2.30;99.90
7427;DHT22;3755;59.316;18.092;2023-03-20T18:55:44;2.20;99.90
7427;DHT22;3755;59.316;18.092;2023-03-20T18:58:19;2.10;99.90
7427;DHT22;3755;59.316;18.092;2023-03-20T19:00:47;2.00;99.90
7427;DHT22;3755;59.316;18.092;2023-03-20T19:03:15;2.00;99.90
7427;DHT22;3755;59.316;18.092;2023-03-20T19:05:42;2.00;99.90
7427;DHT22;3755;59.316;18.092;2023-03-20T19:08:13;2.10;99.90
7427;DHT22;3755;59.316;18.092;2023-03-20T19:10:43;2.10;99.90
7427;DHT22;3755;59.316;18.092;2023-03-20T19:13:12;2.20;99.90
7427;DHT22;3755;59.316;18.092;2023-03-20T19:15:43;2.30;99.90
7427;DHT22;3755;59.316;18.092;2023-03-20T19:18:15;2.40;99.90
7427;DHT22;3755;59.316;18.092;2023-03-20T19:20:44;2.40;99.90
7427;DHT22;3755;59.316;18.092;2023-03-20T19:23:14;2.30;99.90
7427;DHT22;3755;59.316;18.092;2023-03-20T19:25:44;2.30;99.90
7427;DHT22;3755;59.316;18.092;2023-03-20T19:28:19;2.30;99.90
7427;DHT22;3755;59.316;18.092;2023-03-20T19:30:49;2.20;99.90